Alpena, MI

10:04 PM EST on February 27, 2015 (GMT -0500)
Alpena County Regional | Change Station
CLOSE
Current Station
Airport
Location: Alpena,
Elevation: 689 ft
Nearby Weather Stations

Elev 689 ft 45.07 °N, 83.56 °W | Updated 10 minutes ago

Clear
Clear
1 °F
Feels Like -7 °F
N
4
Wind Variable Wind from WSW

Today
High -- | Low -- °F
--% Chance of Precip.
Yesterday
High -- | Low -- °F
Precip. -- in
7:15 AM 6:18 PM
Waxing Gibbous, 74% visible
Pressure 30.59 in
Visibility 10.0 miles
Clouds Clear
Windchill -7 °F
Dew Point -5 °F
Humidity 75%
Rainfall 0.00 in
Snow Depth Not available.
UV 0 out of 12
Pollen .30 out of 12
Air Quality Not available.
Flu Activity Not available.
METAR KAPN 280254Z AUTO 24003KT 10SM CLR M17/M21 A3053 RMK AO2 SLP359 T11721206 53019

More Conditions Fewer Conditions

Pressure 30.59 in
Visibility 10.0 miles
Clouds Clear
Windchill -7 °F
Dew Point -5 °F
Humidity 75%
Rainfall 0.00 in
Snow Depth Not available.
UV 0 out of 12
Pollen .30 out of 12
Air Quality Not available.
Flu Activity Not available.
METAR KAPN 280254Z AUTO 24003KT 10SM CLR M17/M21 A3053 RMK AO2 SLP359 T11721206 53019

More Conditions Fewer Conditions

Nowcast | as of 10:00 PM EST on February 27, 2015

At 11 PM...clear. Temperature 4 below. Light winds. At 1 am...clear. Temperature 8 below. Southwest winds 6 mph. At 3 am...clear. Temperature 7 below. Southwest winds 5 mph. At 5 am...clear. Temperature 5 below. Light winds.

×

10-Day Weather Forecast

Almanac

Astronomy

Feb. 27, 2015 Rise Set
Actual Time
Civil Twilight
Nautical Twilight
Astronomical Twilight
Moon
Length of Visible Light
Length of Day
Tomorrow will be .
, % of the Moon is Illuminated

Today's Extremes

State Highs State Lows

Community

WunderPhotos

Upload Photos

1,800,951 photos uploaded!

WunderBlogs® & News

Nearby

Air Quality

  Air Quality AQ Index Pollutant
Not available.

Snow Depth

Station Depth Elevation

Earthquake Activity

City Distance Mag. Time & Date
Minimum magnitude displayed is 2.5.

Coastal Water Temperatures

Place Temperature

Nearby Weather Stations